Henryetta, Oklahoma
Current Conditions -  °F | °C
As of 2:35 AM on Friday 28 Nov 2014 (Local Time) from KOKM Reporting Station
Clear Clear  
Wind Chill: 34°   Ceiling: Unl
Heat Index: 40°   Visibility: 10mi
Dew Point: 26°   Wind: 8mph
Humidity: 59%   Direction: 180°S
Pressure: 30.26"   Gusts: NA
Location:  35.44°N, 95.98°W
Report Text: KOKM 280835Z AUTO 18007KT 130V200 10SM CLR 04/M03 A3026 RMK AO2 T00441031
Loading
Personal Weather Stations






























Interactive Weather Map New forecast layout! Learn more

10-Day Weather Forecast

Advertisements
Track Severe Weather on mobile